Adventure of The Seas — C6SA3 — position and weather

sailwx.info

Track history (hours):
 
Tides and Currents Weather Stations Pressure Air Temp Water Temp Dewpoint Dewpoint Depression Visibility Wind Speed Wind Dir Waves Ship Positions

Adventure of The Seas

Operator: Royal Caribbean Cruises Ltd

Last reported at 2014-Sep-29 09:33 UTC. Time now 2014-Oct-02 08:23 UTC.
Position N 48°30' W 005°57'.

Type: Passenger vessel. MMSI: 311263000.

Date/timePositionNaut miles runAvg speedWind from/ knotsBaromVisibWave heightAir tempDewpointWater temp
2014-Sep-29 09:33N 48°30' W 005°57'19214.8
2014-Sep-28 20:33N 50°14' W 001°49'1514.6
2014-Sep-28 19:33N 50°20' W 001°28'1715.9
2014-Sep-28 18:29N 50°31' W 001°07'1313.7
2014-Sep-28 17:33N 50°42' W 000°58'1413.6
2014-Sep-28 16:34N 50°48' W 001°17'7 7.0
2014-Sep-28 15:31N 50°54' W 001°25'0 0.0
2014-Sep-28 14:33N 50°54' W 001°25'0 0.0
2014-Sep-28 13:32N 50°54' W 001°25'0 0.0
2014-Sep-28 12:33N 50°54' W 001°25'0 0.0
2014-Sep-28 11:33N 50°54' W 001°25'0 0.0
2014-Sep-28 10:33N 50°54' W 001°25'0 0.0
2014-Sep-28 09:33N 50°54' W 001°25'0 0.0
2014-Sep-28 08:33N 50°54' W 001°25'0 0.0
2014-Sep-28 07:33N 50°54' W 001°25'0 0.0
2014-Sep-28 06:32N 50°54' W 001°25'0 0.0
2014-Sep-28 05:32N 50°54' W 001°25'0 0.0
2014-Sep-28 04:27N 50°54' W 001°25'4 5.1
2014-Sep-28 03:33N 50°51' W 001°20'8 8.5
2014-Sep-28 02:33N 50°46' W 001°09'1211.8
2014-Sep-28 01:33N 50°36' W 000°59'  
2014-Sep-25 19:33N 38°42' W 009°51'1313.3
2014-Sep-25 18:34N 38°36' W 009°36'1313.4
2014-Sep-25 17:33N 38°39' W 009°19'10 9.6
2014-Sep-25 16:33N 38°42' W 009°08'0 0.0
2014-Sep-25 15:33N 38°42' W 009°08'0 0.0
2014-Sep-25 14:33N 38°42' W 009°08'0 0.0
2014-Sep-25 13:33N 38°42' W 009°08'0 0.0
2014-Sep-25 12:33N 38°42' W 009°08'0 0.0
2014-Sep-25 11:33N 38°42' W 009°08'0 0.0
2014-Sep-25 10:33N 38°42' W 009°08'0 0.0
2014-Sep-25 09:33N 38°42' W 009°08'0 0.0
2014-Sep-25 08:30N 38°42' W 009°08'0 0.0
2014-Sep-25 07:33N 38°42' W 009°08'0 0.3
2014-Sep-25 06:33N 38°42' W 009°08'1010.4
2014-Sep-25 05:34N 38°39' W 009°20'1514.7
2014-Sep-25 04:33N 38°24' W 009°24'1616.1
2014-Sep-25 03:33N 38°08' W 009°23'1717.0
2014-Sep-25 02:33N 37°51' W 009°22'1918.8
2014-Sep-25 01:33N 37°33' W 009°22'5814.5
2014-Sep-24 21:31N 36°42' W 008°46'1818.4
2014-Sep-24 20:33N 36°41' W 008°23'1918.3
2014-Sep-24 19:33N 36°38' W 008°01'126 6.0
2014-Sep-23 22:31N 35°59' W 005°31'10 9.9
2014-Sep-23 21:29N 36°02' W 005°19'41412.0
2014-Sep-22 11:04N 37°33' E 003°06'6618.7
2014-Sep-22 07:33N 37°50' E 004°26'1918.9
2014-Sep-22 06:33N 37°55' E 004°49'1918.7
2014-Sep-22 05:34N 38°00' E 005°11'14818.2
2014-Sep-21 21:27N 38°38' E 008°14'2425.4
2014-Sep-21 20:29N 38°44' E 008°44'1112.1
2014-Sep-21 19:33N 38°47' E 008°58'1817.5
2014-Sep-21 18:33N 39°03' E 009°09'1010.2
2014-Sep-21 17:34N 39°12' E 009°06'0 0.0
2014-Sep-21 16:33N 39°13' E 009°06'0 0.0
2014-Sep-21 15:33N 39°13' E 009°06'0 0.0
2014-Sep-21 14:33N 39°13' E 009°06'0 0.0
2014-Sep-21 13:33N 39°13' E 009°06'0 0.0
2014-Sep-21 12:33N 39°13' E 009°06'0 0.0
2014-Sep-21 11:33N 39°13' E 009°06'0 0.0
2014-Sep-21 10:33N 39°12' E 009°06'6 6.1
2014-Sep-21 09:33N 39°08' E 009°12'1716.8
2014-Sep-21 08:33N 38°59' E 009°31'23518.1
2014-Sep-20 19:33N 42°53' E 009°58'1918.8
2014-Sep-20 18:33N 43°11' E 010°05'1918.6
2014-Sep-20 17:33N 43°29' E 010°12'6 6.0
2014-Sep-20 16:33N 43°33' E 010°18'0 0.0
2014-Sep-20 15:33N 43°33' E 010°18'0 0.0
2014-Sep-20 14:30N 43°33' E 010°18'0 0.0
2014-Sep-20 13:33N 43°33' E 010°18'0 0.0
2014-Sep-20 12:33N 43°33' E 010°18'0 0.0
2014-Sep-20 11:33N 43°33' E 010°18'0 0.0
2014-Sep-20 10:33N 43°33' E 010°18'0 0.0
2014-Sep-20 09:33N 43°33' E 010°18'0 0.0
2014-Sep-20 08:33N 43°33' E 010°18'0 0.0
2014-Sep-20 07:33N 43°33' E 010°18'0 0.0
2014-Sep-20 06:33N 43°33' E 010°18'0 0.0
2014-Sep-20 05:33N 43°33' E 010°18'0 0.0
2014-Sep-20 04:33N 43°33' E 010°18'5 4.8
2014-Sep-20 03:33N 43°30' E 010°13'1010.3
2014-Sep-20 02:33N 43°19' E 010°17'1111.2
2014-Sep-20 01:33N 43°09' E 010°21'  
Track history (hours):
 
Tides and Currents Weather Stations Pressure Air Temp Water Temp Dewpoint Dewpoint Depression Visibility Wind Speed Wind Dir Waves Ship Positions

Adventure of The Seas

Operator: Royal Caribbean Cruises Ltd

Last reported at 2014-Sep-29 09:33 UTC. Time now 2014-Oct-02 08:23 UTC.
Position N 48°30' W 005°57'.

Type: Passenger vessel. MMSI: 311263000.

Date/timePositionNaut miles runAvg speedWind from/ knotsBaromVisibWave heightAir tempDewpointWater temp
2014-Sep-29 09:33N 48°30' W 005°57'19214.8
2014-Sep-28 20:33N 50°14' W 001°49'1514.6
2014-Sep-28 19:33N 50°20' W 001°28'1715.9
2014-Sep-28 18:29N 50°31' W 001°07'1313.7
2014-Sep-28 17:33N 50°42' W 000°58'1413.6
2014-Sep-28 16:34N 50°48' W 001°17'7 7.0
2014-Sep-28 15:31N 50°54' W 001°25'0 0.0
2014-Sep-28 14:33N 50°54' W 001°25'0 0.0
2014-Sep-28 13:32N 50°54' W 001°25'0 0.0
2014-Sep-28 12:33N 50°54' W 001°25'0 0.0
2014-Sep-28 11:33N 50°54' W 001°25'0 0.0
2014-Sep-28 10:33N 50°54' W 001°25'0 0.0
2014-Sep-28 09:33N 50°54' W 001°25'0 0.0
2014-Sep-28 08:33N 50°54' W 001°25'0 0.0
2014-Sep-28 07:33N 50°54' W 001°25'0 0.0
2014-Sep-28 06:32N 50°54' W 001°25'0 0.0
2014-Sep-28 05:32N 50°54' W 001°25'0 0.0
2014-Sep-28 04:27N 50°54' W 001°25'4 5.1
2014-Sep-28 03:33N 50°51' W 001°20'8 8.5
2014-Sep-28 02:33N 50°46' W 001°09'1211.8
2014-Sep-28 01:33N 50°36' W 000°59'  
2014-Sep-25 19:33N 38°42' W 009°51'1313.3
2014-Sep-25 18:34N 38°36' W 009°36'1313.4
2014-Sep-25 17:33N 38°39' W 009°19'10 9.6
2014-Sep-25 16:33N 38°42' W 009°08'0 0.0
2014-Sep-25 15:33N 38°42' W 009°08'0 0.0
2014-Sep-25 14:33N 38°42' W 009°08'0 0.0
2014-Sep-25 13:33N 38°42' W 009°08'0 0.0
2014-Sep-25 12:33N 38°42' W 009°08'0 0.0
2014-Sep-25 11:33N 38°42' W 009°08'0 0.0
2014-Sep-25 10:33N 38°42' W 009°08'0 0.0
2014-Sep-25 09:33N 38°42' W 009°08'0 0.0
2014-Sep-25 08:30N 38°42' W 009°08'0 0.0
2014-Sep-25 07:33N 38°42' W 009°08'0 0.3
2014-Sep-25 06:33N 38°42' W 009°08'1010.4
2014-Sep-25 05:34N 38°39' W 009°20'1514.7
2014-Sep-25 04:33N 38°24' W 009°24'1616.1
2014-Sep-25 03:33N 38°08' W 009°23'1717.0
2014-Sep-25 02:33N 37°51' W 009°22'1918.8
2014-Sep-25 01:33N 37°33' W 009°22'5814.5
2014-Sep-24 21:31N 36°42' W 008°46'1818.4
2014-Sep-24 20:33N 36°41' W 008°23'1918.3
2014-Sep-24 19:33N 36°38' W 008°01'126 6.0
2014-Sep-23 22:31N 35°59' W 005°31'10 9.9
2014-Sep-23 21:29N 36°02' W 005°19'41412.0
2014-Sep-22 11:04N 37°33' E 003°06'6618.7
2014-Sep-22 07:33N 37°50' E 004°26'1918.9
2014-Sep-22 06:33N 37°55' E 004°49'1918.7
2014-Sep-22 05:34N 38°00' E 005°11'14818.2
2014-Sep-21 21:27N 38°38' E 008°14'2425.4
2014-Sep-21 20:29N 38°44' E 008°44'1112.1
2014-Sep-21 19:33N 38°47' E 008°58'1817.5
2014-Sep-21 18:33N 39°03' E 009°09'1010.2
2014-Sep-21 17:34N 39°12' E 009°06'0 0.0
2014-Sep-21 16:33N 39°13' E 009°06'0 0.0
2014-Sep-21 15:33N 39°13' E 009°06'0 0.0
2014-Sep-21 14:33N 39°13' E 009°06'0 0.0
2014-Sep-21 13:33N 39°13' E 009°06'0 0.0
2014-Sep-21 12:33N 39°13' E 009°06'0 0.0
2014-Sep-21 11:33N 39°13' E 009°06'0 0.0
2014-Sep-21 10:33N 39°12' E 009°06'6 6.1
2014-Sep-21 09:33N 39°08' E 009°12'1716.8
2014-Sep-21 08:33N 38°59' E 009°31'23518.1
2014-Sep-20 19:33N 42°53' E 009°58'1918.8
2014-Sep-20 18:33N 43°11' E 010°05'1918.6
2014-Sep-20 17:33N 43°29' E 010°12'6 6.0
2014-Sep-20 16:33N 43°33' E 010°18'0 0.0
2014-Sep-20 15:33N 43°33' E 010°18'0 0.0
2014-Sep-20 14:30N 43°33' E 010°18'0 0.0
2014-Sep-20 13:33N 43°33' E 010°18'0 0.0
2014-Sep-20 12:33N 43°33' E 010°18'0 0.0
2014-Sep-20 11:33N 43°33' E 010°18'0 0.0
2014-Sep-20 10:33N 43°33' E 010°18'0 0.0
2014-Sep-20 09:33N 43°33' E 010°18'0 0.0
2014-Sep-20 08:33N 43°33' E 010°18'0 0.0
2014-Sep-20 07:33N 43°33' E 010°18'0 0.0
2014-Sep-20 06:33N 43°33' E 010°18'0 0.0
2014-Sep-20 05:33N 43°33' E 010°18'0 0.0
2014-Sep-20 04:33N 43°33' E 010°18'5 4.8
2014-Sep-20 03:33N 43°30' E 010°13'1010.3
2014-Sep-20 02:33N 43°19' E 010°17'1111.2
2014-Sep-20 01:33N 43°09' E 010°21'  

Dump ship's entire track history